Time;durP1;ratioP1;P1;durP2;ratioP2;P2;SDS_P1;SDS_P2;PMS_P1;PMS_P2;Temp;Humidity;BMP_temperature;BMP_pressure;BME280_temperature;BME280_humidity;BME280_pressure;Samples;Min_cycle;Max_cycle;Signal;HPM_P1;HPM_P2
2023/04/18 00:01:13;;;;;;;15.70;14.50;;;11.70;55.00;;;;;;20672;6730;306081;-74
2023/04/18 00:03:49;;;;;;;13.13;12.10;;;11.90;54.70;;;;;;20894;6741;117605;-74
2023/04/18 00:06:25;;;;;;;16.95;15.65;;;11.70;54.40;;;;;;20701;6741;276799;-72
2023/04/18 00:09:01;;;;;;;15.40;14.00;;;11.60;54.30;;;;;;20926;6736;121102;-73
2023/04/18 00:11:36;;;;;;;14.27;13.17;;;11.40;54.90;;;;;;20880;6726;118372;-74
2023/04/18 00:14:12;;;;;;;17.33;16.00;;;11.10;55.80;;;;;;20754;6725;304668;-73
2023/04/18 00:16:47;;;;;;;17.42;16.02;;;11.20;55.60;;;;;;20750;6725;305067;-73
2023/04/18 00:19:23;;;;;;;16.47;15.27;;;11.50;55.30;;;;;;20757;6725;276785;-73
2023/04/18 00:21:58;;;;;;;17.23;15.83;;;11.70;54.90;;;;;;20642;6725;278100;-74
2023/04/18 00:24:34;;;;;;;14.93;13.53;;;11.90;54.00;;;;;;20959;6726;116196;-73
2023/04/18 00:27:11;;;;;;;14.20;13.00;;;11.60;54.40;;;;;;20961;6726;116213;-73
2023/04/18 00:29:47;;;;;;;14.63;13.33;;;11.20;55.30;;;;;;20936;6726;117704;-73
2023/04/18 00:32:22;;;;;;;15.33;13.37;;;10.90;56.30;;;;;;20812;6726;121445;-73
2023/04/18 00:34:58;;;;;;;15.07;13.67;;;10.70;57.10;;;;;;20925;6715;117546;-73
2023/04/18 00:37:34;;;;;;;13.17;11.87;;;10.40;58.60;;;;;;20908;6715;117783;-74
2023/04/18 00:40:10;;;;;;;17.97;16.50;;;10.40;58.40;;;;;;20709;6715;305100;-73
2023/04/18 00:42:46;;;;;;;15.73;14.33;;;10.60;57.50;;;;;;20759;6715;119787;-73
2023/04/18 00:45:21;;;;;;;15.10;13.80;;;10.70;57.40;;;;;;20960;6715;117542;-73
2023/04/18 00:47:57;;;;;;;13.77;12.57;;;10.50;57.90;;;;;;20911;6715;117182;-73
2023/04/18 00:50:32;;;;;;;14.67;13.37;;;10.40;58.80;;;;;;20956;6715;117133;-73
2023/04/18 00:53:08;;;;;;;14.50;13.20;;;10.30;59.20;;;;;;20757;6715;122412;-73
2023/04/18 00:55:46;;;;;;;14.27;13.07;;;10.20;59.70;;;;;;20909;6715;117151;-73
2023/04/18 00:58:19;;;;;;;16.70;15.30;;;10.20;60.20;;;;;;20714;6715;309689;-73
2023/04/18 01:00:55;;;;;;;15.07;13.60;;;10.60;58.70;;;;;;20929;6715;117315;-73
2023/04/18 01:03:34;;;;;;;16.55;15.15;;;10.60;58.70;;;;;;20476;6787;278199;-74
2023/04/18 01:06:10;;;;;;;16.73;15.43;;;10.90;57.60;;;;;;20713;6715;305321;-74
2023/04/18 01:08:42;;;;;;;16.65;15.30;;;11.20;56.70;;;;;;20719;6715;324412;-74
2023/04/18 01:11:18;;;;;;;14.70;13.43;;;11.60;55.60;;;;;;20928;6715;117247;-73
2023/04/18 01:14:03;;;;;;;15.70;14.50;;;11.50;55.90;;;;;;20697;6715;306458;-73
2023/04/18 01:16:40;;;;;;;15.80;14.67;;;11.60;55.50;;;;;;20746;6715;309645;-73
2023/04/18 01:19:16;;;;;;;15.47;14.27;;;12.10;53.80;;;;;;20741;6715;277621;-73
2023/04/18 01:21:53;;;;;;;15.90;14.50;;;12.00;53.70;;;;;;20642;6715;337695;-73
2023/04/18 01:24:31;;;;;;;12.77;11.77;;;12.20;53.40;;;;;;20940;6715;117245;-73
2023/04/18 01:27:03;;;;;;;15.68;14.48;;;11.90;54.10;;;;;;20751;6715;305060;-73
2023/04/18 01:29:38;;;;;;;15.43;14.33;;;11.90;54.50;;;;;;20695;6715;279888;-74
2023/04/18 01:32:16;;;;;;;15.50;14.30;;;12.10;53.60;;;;;;20630;6715;300164;-73
2023/04/18 01:34:50;;;;;;;13.80;12.50;;;12.20;52.80;;;;;;20925;6715;118039;-73
2023/04/18 01:37:25;;;;;;;13.83;12.50;;;12.00;53.50;;;;;;20917;6715;121335;-74
2023/04/18 01:40:01;;;;;;;15.25;14.05;;;11.60;54.60;;;;;;20700;6715;339425;-73
2023/04/18 01:42:43;;;;;;;13.07;11.97;;;11.60;54.10;;;;;;21165;6486;72937;-72
2023/04/18 01:45:09;;;;;;;12.30;11.25;;;11.50;54.40;;;;;;20761;6833;117440;-72
2023/04/18 01:47:35;;;;;;;13.90;12.63;;;11.00;55.70;;;;;;20781;6815;118750;-73
2023/04/18 01:50:01;;;;;;;15.40;14.17;;;11.00;55.70;;;;;;20547;6834;308168;-73
2023/04/18 01:52:27;;;;;;;15.17;14.07;;;11.00;55.20;;;;;;20572;6816;309274;-73
2023/04/18 01:54:52;;;;;;;13.10;11.90;;;11.30;55.10;;;;;;20763;6831;118829;-73
2023/04/18 01:57:18;;;;;;;15.23;14.03;;;11.30;55.50;;;;;;20588;6819;312251;-73
2023/04/18 01:59:43;;;;;;;11.90;11.00;;;11.30;54.70;;;;;;20796;6816;119345;-74
2023/04/18 02:02:10;;;;;;;13.07;12.07;;;11.20;55.00;;;;;;20812;6815;117817;-73
2023/04/18 02:04:34;;;;;;;12.48;11.40;;;11.00;55.80;;;;;;20820;6815;118641;-73
2023/04/18 02:07:00;;;;;;;13.93;12.93;;;10.70;56.30;;;;;;20604;6815;277917;-73
2023/04/18 02:09:26;;;;;;;14.80;13.50;;;11.20;54.80;;;;;;20584;6815;311720;-74
2023/04/18 02:11:55;;;;;;;12.03;11.10;;;11.20;55.30;;;;;;20816;6815;119307;-73
2023/04/18 02:14:17;;;;;;;15.02;13.93;;;11.10;55.80;;;;;;20592;6815;312053;-73
2023/04/18 02:16:43;;;;;;;13.32;12.23;;;11.30;55.10;;;;;;20814;6815;117637;-73
2023/04/18 02:19:09;;;;;;;15.07;13.82;;;11.20;55.50;;;;;;20600;6815;329224;-73
2023/04/18 02:21:35;;;;;;;13.43;12.32;;;11.20;55.20;;;;;;20797;6815;117617;-73
2023/04/18 02:24:00;;;;;;;11.80;10.77;;;11.20;55.20;;;;;;20801;6815;121617;-73
2023/04/18 02:26:26;;;;;;;14.07;12.98;;;10.90;55.70;;;;;;20547;6830;308456;-73
2023/04/18 02:28:52;;;;;;;14.73;13.55;;;11.30;54.80;;;;;;20592;6819;279859;-75
2023/04/18 02:31:18;;;;;;;14.43;13.33;;;11.30;54.80;;;;;;20594;6819;277609;-73
2023/04/18 02:33:44;;;;;;;14.83;13.73;;;11.70;53.40;;;;;;20624;6804;279450;-73
2023/04/18 02:36:13;;;;;;;14.13;13.10;;;11.60;53.30;;;;;;20633;6804;280546;-73
2023/04/18 02:38:40;;;;;;;14.03;13.03;;;11.80;53.00;;;;;;20590;6807;307956;-73
2023/04/18 02:41:05;;;;;;;13.40;12.40;;;11.80;53.00;;;;;;20594;6816;277501;-73
2023/04/18 02:43:31;;;;;;;14.30;13.20;;;11.90;53.00;;;;;;20575;6816;304670;-73
2023/04/18 02:45:56;;;;;;;12.03;10.93;;;11.90;52.60;;;;;;20804;6816;117973;-74
2023/04/18 02:48:22;;;;;;;13.70;12.60;;;11.60;53.20;;;;;;20598;6816;306506;-73
2023/04/18 02:50:48;;;;;;;14.10;12.90;;;11.60;53.00;;;;;;20582;6816;307042;-73
2023/04/18 02:53:13;;;;;;;13.73;12.73;;;11.70;52.90;;;;;;20601;6815;278064;-75
2023/04/18 02:55:39;;;;;;;13.15;12.15;;;11.70;52.70;;;;;;20577;6816;306578;-76
2023/04/18 02:58:04;;;;;;;13.93;12.83;;;11.80;52.60;;;;;;20591;6816;276706;-73
2023/04/18 03:00:30;;;;;;;11.32;10.43;;;11.80;52.50;;;;;;20808;6816;120065;-73
2023/04/18 03:02:56;;;;;;;13.23;12.03;;;11.50;53.00;;;;;;20590;6816;306512;-74
2023/04/18 03:05:22;;;;;;;10.73;9.90;;;11.50;53.00;;;;;;20807;6816;117886;-73
2023/04/18 03:07:47;;;;;;;19.40;17.80;;;11.30;53.90;;;;;;20568;6816;277129;-74
2023/04/18 03:10:13;;;;;;;11.75;10.85;;;11.30;54.20;;;;;;20820;6816;117486;-73
2023/04/18 03:12:38;;;;;;;13.73;12.73;;;11.20;54.50;;;;;;20606;6816;276602;-73
2023/04/18 03:15:04;;;;;;;11.85;10.95;;;11.20;54.50;;;;;;20821;6816;117931;-74
2023/04/18 03:17:30;;;;;;;12.65;11.75;;;11.10;54.80;;;;;;20588;6816;306082;-74
2023/04/18 03:19:56;;;;;;;11.50;10.52;;;11.20;54.30;;;;;;20818;6816;117646;-73
2023/04/18 03:22:21;;;;;;;13.38;12.25;;;11.10;54.40;;;;;;20600;6816;340082;-73
2023/04/18 03:24:47;;;;;;;12.57;11.67;;;11.10;54.50;;;;;;20594;6816;306468;-74
2023/04/18 03:27:12;;;;;;;12.37;11.37;;;11.40;54.10;;;;;;20810;6816;117601;-73
2023/04/18 03:29:38;;;;;;;11.57;10.48;;;11.30;54.60;;;;;;20783;6816;118695;-74
2023/04/18 03:32:05;;;;;;;11.88;10.98;;;11.00;55.00;;;;;;20595;6816;337119;-74
2023/04/18 03:34:30;;;;;;;12.63;11.83;;;11.10;55.00;;;;;;20604;6816;277846;-73
2023/04/18 03:36:56;;;;;;;12.75;11.75;;;11.40;54.10;;;;;;20594;6816;307409;-74
2023/04/18 03:39:21;;;;;;;11.40;10.50;;;11.60;53.20;;;;;;20807;6816;117529;-73
2023/04/18 03:41:48;;;;;;;10.90;10.00;;;11.40;53.50;;;;;;20792;6816;117749;-74
2023/04/18 03:44:13;;;;;;;12.93;11.93;;;11.10;54.40;;;;;;20588;6816;298456;-74
2023/04/18 03:46:38;;;;;;;13.20;12.20;;;11.10;54.10;;;;;;20592;6816;310717;-74
2023/04/18 03:49:04;;;;;;;12.88;11.98;;;11.30;53.70;;;;;;20603;6816;281643;-73
2023/04/18 03:51:30;;;;;;;12.95;12.02;;;11.50;53.20;;;;;;20578;6816;335998;-74
2023/04/18 03:53:55;;;;;;;11.27;10.32;;;11.60;53.10;;;;;;20805;6816;118896;-74
2023/04/18 03:56:20;;;;;;;11.07;10.07;;;11.40;53.60;;;;;;20808;6816;123757;-74
2023/04/18 03:58:47;;;;;;;10.73;9.82;;;10.80;55.10;;;;;;20812;6816;117957;-73
2023/04/18 04:01:12;;;;;;;11.03;10.07;;;10.70;54.90;;;;;;20804;6816;118537;-74
2023/04/18 04:03:38;;;;;;;11.83;10.73;;;10.50;55.70;;;;;;20804;6814;117847;-73
2023/04/18 04:06:04;;;;;;;10.60;9.70;;;10.30;56.20;;;;;;20821;6815;119088;-76
2023/04/18 04:08:29;;;;;;;10.33;9.40;;;10.20;56.80;;;;;;20813;6816;117167;-73
2023/04/18 04:10:55;;;;;;;10.55;9.65;;;10.00;57.00;;;;;;20814;6816;117350;-73
2023/04/18 04:13:22;;;;;;;13.77;12.67;;;10.00;57.60;;;;;;20599;6816;306547;-73
2023/04/18 04:15:48;;;;;;;11.40;10.57;;;10.20;56.80;;;;;;20796;6816;117929;-73
2023/04/18 04:18:13;;;;;;;11.90;10.90;;;10.20;56.70;;;;;;20814;6816;119003;-73
2023/04/18 04:20:39;;;;;;;13.32;12.25;;;10.10;57.20;;;;;;20604;6816;307671;-73
2023/04/18 04:23:05;;;;;;;11.70;10.80;;;10.30;56.90;;;;;;20815;6816;118415;-73
2023/04/18 04:25:32;;;;;;;12.43;11.55;;;10.40;57.00;;;;;;20574;6816;339634;-72
2023/04/18 04:27:56;;;;;;;12.55;11.55;;;10.50;56.30;;;;;;20818;6816;117538;-72
2023/04/18 04:30:22;;;;;;;11.63;10.63;;;10.50;56.30;;;;;;20812;6816;116949;-72
2023/04/18 04:32:48;;;;;;;13.40;12.30;;;10.30;56.70;;;;;;20588;6816;277148;-72
2023/04/18 04:35:14;;;;;;;12.23;11.17;;;10.50;56.00;;;;;;20811;6816;118691;-71
2023/04/18 04:37:40;;;;;;;12.13;11.23;;;10.50;56.30;;;;;;20585;6816;276634;-72
2023/04/18 04:40:08;;;;;;;13.23;12.13;;;10.60;55.80;;;;;;20607;6816;306063;-73
2023/04/18 04:42:31;;;;;;;11.50;10.53;;;10.90;55.00;;;;;;20790;6816;118695;-74
2023/04/18 04:44:57;;;;;;;13.87;12.80;;;11.00;54.50;;;;;;20603;6816;326043;-71
2023/04/18 04:47:23;;;;;;;12.95;12.10;;;10.90;54.30;;;;;;20598;6816;311802;-71
2023/04/18 04:49:50;;;;;;;11.57;10.57;;;11.10;54.30;;;;;;20787;6816;118454;-71
2023/04/18 04:52:16;;;;;;;13.32;12.32;;;11.10;54.80;;;;;;20593;6816;306544;-69
2023/04/18 04:54:44;;;;;;;12.32;11.32;;;10.90;54.50;;;;;;20804;6816;119124;-73
2023/04/18 04:57:08;;;;;;;13.27;12.30;;;10.90;54.50;;;;;;20579;6816;307280;-70
2023/04/18 04:59:34;;;;;;;12.33;11.17;;;10.90;54.50;;;;;;20784;6816;148090;-72
2023/04/18 05:01:59;;;;;;;12.13;11.12;;;10.80;54.90;;;;;;20813;6816;123449;-69
2023/04/18 05:04:25;;;;;;;10.93;10.03;;;10.60;55.70;;;;;;20816;6816;117510;-71
2023/04/18 05:06:50;;;;;;;13.90;12.80;;;10.40;56.20;;;;;;20589;6816;318341;-72
2023/04/18 05:09:17;;;;;;;13.05;11.88;;;10.60;55.90;;;;;;20589;6816;310851;-73
2023/04/18 05:11:43;;;;;;;13.30;12.23;;;11.20;54.30;;;;;;20577;6816;309921;-70
2023/04/18 05:14:10;;;;;;;14.47;13.40;;;11.20;54.30;;;;;;20592;6816;307801;-70
2023/04/18 05:16:35;;;;;;;13.93;12.90;;;11.40;53.40;;;;;;20598;6814;281206;-70
2023/04/18 05:19:00;;;;;;;14.23;13.23;;;11.50;53.20;;;;;;20597;6816;307364;-69
2023/04/18 05:21:28;;;;;;;13.80;12.80;;;11.60;52.90;;;;;;20586;6816;277066;-69
2023/04/18 05:23:57;;;;;;;22.40;15.60;;;11.80;52.50;;;;;;20810;6816;118698;-69
2023/04/18 05:26:23;;;;;;;12.00;10.97;;;11.50;53.10;;;;;;20806;6816;117934;-70
2023/04/18 05:28:48;;;;;;;14.90;13.60;;;11.20;54.00;;;;;;20595;6816;290021;-70
2023/04/18 05:31:14;;;;;;;12.05;11.02;;;11.20;53.80;;;;;;20818;6816;118662;-70
2023/04/18 05:33:40;;;;;;;14.30;13.10;;;11.00;54.00;;;;;;20577;6816;310340;-70
2023/04/18 05:36:06;;;;;;;13.83;12.60;;;11.10;53.90;;;;;;20818;6816;118867;-70
2023/04/18 05:38:31;;;;;;;15.07;13.77;;;11.00;54.40;;;;;;20594;6816;335523;-71
2023/04/18 05:40:59;;;;;;;12.83;11.67;;;11.00;54.30;;;;;;20814;6816;117454;-71
2023/04/18 05:43:22;;;;;;;13.73;12.63;;;11.00;54.90;;;;;;20591;6816;336229;-70
2023/04/18 05:45:48;;;;;;;12.17;11.17;;;11.10;54.50;;;;;;20796;6816;117970;-70
2023/04/18 05:48:13;;;;;;;14.60;13.48;;;11.10;54.80;;;;;;20600;6816;307344;-70
2023/04/18 05:50:39;;;;;;;13.07;11.97;;;11.20;54.10;;;;;;20816;6816;119092;-70
2023/04/18 05:53:04;;;;;;;12.82;11.70;;;11.10;54.60;;;;;;20814;6816;117409;-70
2023/04/18 05:55:30;;;;;;;12.05;11.10;;;10.90;55.20;;;;;;20795;6816;118984;-69
2023/04/18 05:57:55;;;;;;;14.80;13.70;;;10.70;55.90;;;;;;20600;6816;281146;-71
2023/04/18 06:00:21;;;;;;;13.80;12.60;;;10.90;55.20;;;;;;20809;6816;119144;-70
2023/04/18 06:02:46;;;;;;;15.38;14.27;;;10.90;55.40;;;;;;20604;6816;310954;-71
2023/04/18 06:05:15;;;;;;;12.27;11.27;;;11.00;54.80;;;;;;20797;6816;117534;-70
2023/04/18 06:07:41;;;;;;;14.90;13.68;;;11.00;55.20;;;;;;20576;6816;276980;-71
2023/04/18 06:10:09;;;;;;;13.40;12.23;;;11.10;54.40;;;;;;20800;6816;118082;-70
2023/04/18 06:12:33;;;;;;;15.80;14.55;;;11.10;54.40;;;;;;20592;6816;306170;-70
2023/04/18 06:14:59;;;;;;;18.67;16.77;;;11.30;53.90;;;;;;20595;6816;307437;-70
2023/04/18 06:17:25;;;;;;;14.10;12.63;;;11.30;53.90;;;;;;20817;6816;118382;-70
2023/04/18 06:19:50;;;;;;;12.25;11.30;;;11.20;54.30;;;;;;20821;6816;117686;-70
2023/04/18 06:22:17;;;;;;;16.05;14.85;;;10.90;54.60;;;;;;20597;6816;336707;-72
2023/04/18 06:24:42;;;;;;;14.00;12.80;;;10.90;54.60;;;;;;20812;6816;120984;-71
2023/04/18 06:27:08;;;;;;;12.33;11.17;;;10.80;55.00;;;;;;20806;6814;117529;-72
2023/04/18 06:29:34;;;;;;;13.68;12.37;;;10.60;55.70;;;;;;20797;6816;119112;-72
2023/04/18 06:31:59;;;;;;;13.43;12.20;;;10.40;56.20;;;;;;20809;6816;117642;-72
2023/04/18 06:34:25;;;;;;;16.13;14.87;;;10.20;56.80;;;;;;20595;6816;336524;-72
2023/04/18 06:36:50;;;;;;;18.42;13.65;;;10.40;56.20;;;;;;20809;6816;120649;-72
2023/04/18 06:39:16;;;;;;;13.77;12.48;;;10.50;56.30;;;;;;20813;6816;117429;-72
2023/04/18 06:41:42;;;;;;;12.97;11.80;;;10.20;57.40;;;;;;20789;6816;118851;-72
2023/04/18 06:44:08;;;;;;;13.37;12.07;;;10.20;57.40;;;;;;20813;6816;118052;-72
2023/04/18 06:46:35;;;;;;;16.40;15.00;;;10.20;57.90;;;;;;20599;6816;307408;-72
2023/04/18 06:49:01;;;;;;;15.90;14.50;;;10.80;55.90;;;;;;20599;6816;307197;-72
2023/04/18 06:51:27;;;;;;;17.00;15.50;;;10.80;55.90;;;;;;20577;6816;281404;-72
2023/04/18 06:53:52;;;;;;;13.73;12.37;;;11.10;54.80;;;;;;20814;6816;119358;-72
2023/04/18 06:56:18;;;;;;;14.70;13.30;;;11.10;55.10;;;;;;20819;6816;117379;-72
2023/04/18 06:58:43;;;;;;;16.45;15.05;;;10.90;56.30;;;;;;20596;6816;340604;-73
2023/04/18 07:01:09;;;;;;;14.68;13.38;;;11.00;55.20;;;;;;20813;6816;121142;-72
2023/04/18 07:03:34;;;;;;;16.27;14.85;;;11.00;55.60;;;;;;20582;6816;336394;-70
2023/04/18 07:06:01;;;;;;;14.20;13.00;;;11.10;55.30;;;;;;20811;6816;118819;-69
2023/04/18 07:08:26;;;;;;;13.13;12.03;;;11.10;55.30;;;;;;20770;6816;117455;-69
2023/04/18 07:10:53;;;;;;;16.15;14.87;;;11.10;55.00;;;;;;20580;6816;307180;-69
2023/04/18 07:13:18;;;;;;;14.37;13.17;;;11.10;55.00;;;;;;20792;6816;122197;-69
2023/04/18 07:15:44;;;;;;;16.50;15.15;;;11.10;55.30;;;;;;20596;6816;281170;-69
2023/04/18 07:18:09;;;;;;;16.83;15.53;;;11.20;54.80;;;;;;20608;6816;315073;-69
2023/04/18 07:20:35;;;;;;;13.73;12.60;;;11.50;54.10;;;;;;20823;6816;117494;-69
2023/04/18 07:23:00;;;;;;;16.70;15.25;;;11.50;54.40;;;;;;20608;6816;310732;-69
2023/04/18 07:25:26;;;;;;;17.10;15.73;;;11.60;53.80;;;;;;20572;6816;306367;-73
2023/04/18 07:27:52;;;;;;;25.63;23.17;;;12.00;53.00;;;;;;20599;6816;276447;-69
2023/04/18 07:30:18;;;;;;;16.47;15.17;;;12.00;52.60;;;;;;20589;6816;307369;-70
2023/04/18 07:32:45;;;;;;;16.42;15.00;;;12.30;52.00;;;;;;20599;6816;306515;-68
2023/04/18 07:35:10;;;;;;;16.00;14.80;;;12.30;51.90;;;;;;20592;6816;307505;-69
2023/04/18 07:37:35;;;;;;;14.37;13.03;;;12.40;51.60;;;;;;20782;6816;121807;-69
2023/04/18 07:40:03;;;;;;;13.40;12.30;;;11.80;53.10;;;;;;20807;6814;117591;-69
2023/04/18 07:42:28;;;;;;;14.17;12.87;;;11.80;53.10;;;;;;20808;6816;118638;-69
2023/04/18 07:44:57;;;;;;;16.37;15.07;;;11.50;54.40;;;;;;20604;6816;311070;-70
2023/04/18 07:47:23;;;;;;;17.27;15.95;;;11.50;53.70;;;;;;20601;6816;302695;-69
2023/04/18 07:49:48;;;;;;;16.67;15.37;;;11.80;53.40;;;;;;20582;6816;335985;-70
2023/04/18 07:52:14;;;;;;;14.00;12.90;;;12.00;52.90;;;;;;20812;6816;118041;-71
2023/04/18 07:54:40;;;;;;;13.57;12.27;;;11.90;53.50;;;;;;20808;6816;118554;-71
2023/04/18 07:57:05;;;;;;;16.55;15.20;;;11.70;54.40;;;;;;20606;6816;310907;-71
2023/04/18 07:59:31;;;;;;;16.75;15.45;;;11.80;53.80;;;;;;20580;6816;306191;-71
2023/04/18 08:01:56;;;;;;;16.33;15.13;;;12.00;53.00;;;;;;20599;6816;305945;-71
2023/04/18 08:04:22;;;;;;;15.00;13.83;;;12.30;52.40;;;;;;20809;6816;117549;-71
2023/04/18 08:06:47;;;;;;;16.10;14.80;;;12.20;53.10;;;;;;20597;6816;278887;-71
2023/04/18 08:09:14;;;;;;;16.17;14.85;;;12.50;52.50;;;;;;20602;6816;277413;-71
2023/04/18 08:11:40;;;;;;;14.13;13.03;;;12.50;52.50;;;;;;20792;6816;121594;-71
2023/04/18 08:14:05;;;;;;;16.58;15.27;;;12.40;53.10;;;;;;20597;6816;302904;-71
2023/04/18 08:16:30;;;;;;;13.87;12.70;;;12.40;52.50;;;;;;20806;6816;121337;-71
2023/04/18 08:18:56;;;;;;;13.60;12.43;;;12.40;53.40;;;;;;20813;6816;118642;-71
2023/04/18 08:21:21;;;;;;;15.70;14.50;;;12.20;53.90;;;;;;20599;6816;306588;-71
2023/04/18 08:23:47;;;;;;;14.00;12.80;;;12.30;53.00;;;;;;20791;6816;121153;-71
2023/04/18 08:26:13;;;;;;;17.10;15.73;;;12.30;53.60;;;;;;20599;6816;340400;-71
2023/04/18 08:28:38;;;;;;;14.45;13.10;;;12.40;52.90;;;;;;20813;6816;117408;-71
2023/04/18 08:31:04;;;;;;;17.20;15.80;;;12.40;53.50;;;;;;20609;6816;277178;-71
2023/04/18 08:33:29;;;;;;;15.75;14.18;;;12.50;52.70;;;;;;20810;6816;118007;-71
2023/04/18 08:35:55;;;;;;;13.90;12.70;;;12.50;53.20;;;;;;20811;6816;118767;-71
2023/04/18 08:38:21;;;;;;;13.90;12.70;;;12.30;54.50;;;;;;20820;6816;118224;-71
2023/04/18 08:40:46;;;;;;;16.40;15.05;;;12.10;54.70;;;;;;20601;6816;340686;-71
2023/04/18 08:43:13;;;;;;;13.70;12.57;;;12.40;54.00;;;;;;20821;6816;118704;-71
2023/04/18 08:45:38;;;;;;;13.37;12.07;;;12.30;53.90;;;;;;20785;6816;117708;-71
2023/04/18 08:48:05;;;;;;;16.67;15.30;;;12.50;53.40;;;;;;20598;6816;306615;-70
2023/04/18 08:50:31;;;;;;;15.67;14.33;;;12.50;53.40;;;;;;20810;6814;117585;-71
2023/04/18 08:52:57;;;;;;;14.73;13.33;;;12.50;53.80;;;;;;20811;6816;117502;-72
2023/04/18 08:55:23;;;;;;;14.18;12.95;;;12.50;54.40;;;;;;20813;6816;118559;-71
2023/04/18 08:57:52;;;;;;;14.93;13.52;;;12.40;54.90;;;;;;20805;6816;121823;-73
2023/04/18 09:00:15;;;;;;;17.57;16.17;;;12.30;55.30;;;;;;20602;6816;311464;-72
2023/04/18 09:02:43;;;;;;;17.53;16.13;;;12.60;53.40;;;;;;20599;6816;306534;-72
2023/04/18 09:05:20;;;;;;;15.03;13.73;;;13.00;53.10;;;;;;20815;6816;118347;-73
2023/04/18 09:07:47;;;;;;;15.33;14.03;;;13.00;53.00;;;;;;20795;6816;118677;-73
2023/04/18 09:10:14;;;;;;;17.80;16.40;;;12.90;53.60;;;;;;20598;6816;277622;-73
2023/04/18 09:12:51;;;;;;;15.50;14.20;;;13.00;52.30;;;;;;20769;6816;121385;-73
2023/04/18 09:15:26;;;;;;;14.90;13.60;;;12.90;53.50;;;;;;20809;6816;117958;-72
2023/04/18 09:17:52;;;;;;;15.33;13.97;;;12.90;53.50;;;;;;20744;6831;118640;-72
2023/04/18 09:20:26;;;;;;;15.77;14.37;;;12.70;54.10;;;;;;20763;6831;117587;-71
2023/04/18 09:22:51;;;;;;;17.27;15.80;;;12.70;54.60;;;;;;20762;6831;117470;-71
2023/04/18 09:25:28;;;;;;;15.87;14.40;;;12.60;54.90;;;;;;20766;6831;118673;-72
2023/04/18 09:27:53;;;;;;;15.43;13.93;;;12.50;55.30;;;;;;20753;6831;117586;-72
2023/04/18 09:30:27;;;;;;;18.70;17.10;;;12.50;55.60;;;;;;20532;6837;308454;-73
2023/04/18 09:32:54;;;;;;;16.93;15.53;;;12.80;54.10;;;;;;20755;6822;119234;-71
2023/04/18 09:35:19;;;;;;;17.77;16.37;;;13.00;54.60;;;;;;20536;6831;308200;-71
2023/04/18 09:37:44;;;;;;;16.17;14.80;;;13.30;52.80;;;;;;20716;6831;118738;-71
2023/04/18 09:40:17;;;;;;;15.83;14.43;;;13.40;53.20;;;;;;20753;6831;121785;-72
2023/04/18 09:42:42;;;;;;;17.85;16.35;;;13.40;53.80;;;;;;20558;6831;278996;-71
2023/04/18 09:45:08;;;;;;;17.73;16.37;;;13.70;51.70;;;;;;20543;6836;336275;-70
2023/04/18 09:47:36;;;;;;;17.40;16.10;;;14.20;51.50;;;;;;20568;6822;311455;-71
2023/04/18 09:50:02;;;;;;;16.10;14.60;;;14.60;50.50;;;;;;20788;6825;119275;-71
2023/04/18 09:52:27;;;;;;;15.23;13.93;;;14.70;51.10;;;;;;20726;6838;118043;-70
2023/04/18 09:54:57;;;;;;;15.07;13.80;;;14.60;51.70;;;;;;20781;6822;117542;-70
2023/04/18 09:57:22;;;;;;;16.92;15.70;;;14.80;50.40;;;;;;20543;6831;278107;-71
2023/04/18 09:59:51;;;;;;;14.73;13.63;;;14.80;50.40;;;;;;20715;6837;117988;-71
2023/04/18 10:02:16;;;;;;;15.73;14.33;;;15.00;51.00;;;;;;20790;6816;118441;-73
2023/04/18 10:04:42;;;;;;;14.90;13.53;;;14.90;51.40;;;;;;20775;6819;117800;-70
2023/04/18 10:07:07;;;;;;;13.83;12.83;;;14.90;51.50;;;;;;20799;6820;117409;-71
2023/04/18 10:09:33;;;;;;;17.10;15.70;;;14.80;51.90;;;;;;20577;6820;337376;-71
2023/04/18 10:11:58;;;;;;;14.53;13.43;;;15.00;49.60;;;;;;20809;6820;117096;-71
2023/04/18 10:14:26;;;;;;;14.40;13.20;;;15.10;50.80;;;;;;20795;6820;118641;-71
2023/04/18 10:16:53;;;;;;;16.45;15.20;;;15.30;49.70;;;;;;20588;6820;307086;-70
2023/04/18 10:19:25;;;;;;;14.77;13.67;;;15.20;49.60;;;;;;20785;6820;117428;-75
2023/04/18 10:21:53;;;;;;;14.40;13.10;;;15.40;50.50;;;;;;20768;6822;127957;-71
2023/04/18 10:24:52;;;;;;;15.00;13.80;;;15.40;50.90;;;;;;20787;6820;117305;-72
2023/04/18 10:27:17;;;;;;;16.62;15.43;;;15.20;51.00;;;;;;20581;6820;303768;-69
2023/04/18 10:29:49;;;;;;;17.27;15.90;;;15.40;48.70;;;;;;20562;6822;278915;-70
2023/04/18 10:32:15;;;;;;;16.40;15.20;;;15.80;47.90;;;;;;20575;6822;309802;-69
2023/04/18 10:34:40;;;;;;;14.70;13.53;;;16.00;46.80;;;;;;20785;6822;118382;-71
2023/04/18 10:37:06;;;;;;;16.60;15.30;;;15.90;48.10;;;;;;20573;6822;308735;-70
2023/04/18 10:39:31;;;;;;;14.50;13.30;;;16.00;46.90;;;;;;20775;6822;117986;-70
2023/04/18 10:41:57;;;;;;;16.10;14.87;;;15.90;48.30;;;;;;20510;6822;307190;-71
2023/04/18 10:44:22;;;;;;;17.00;15.70;;;16.00;47.60;;;;;;20585;6822;310736;-71
2023/04/18 10:46:51;;;;;;;15.40;14.30;;;16.20;45.80;;;;;;20582;6822;284398;-71
2023/04/18 10:49:17;;;;;;;15.63;14.52;;;16.50;45.50;;;;;;20608;6807;336310;-76
2023/04/18 10:51:46;;;;;;;13.50;12.30;;;16.50;45.50;;;;;;20814;6807;117592;-74
2023/04/18 10:54:12;;;;;;;13.20;12.20;;;16.30;46.60;;;;;;20840;6807;117509;-75
2023/04/18 10:56:38;;;;;;;21.33;19.33;;;16.00;47.50;;;;;;20818;6807;117473;-73
2023/04/18 10:59:04;;;;;;;14.93;13.73;;;15.70;46.60;;;;;;20629;6807;306513;-74
2023/04/18 11:01:31;;;;;;;13.47;12.40;;;15.70;46.60;;;;;;20812;6807;117578;-76
2023/04/18 11:03:56;;;;;;;13.57;12.47;;;15.70;47.80;;;;;;20834;6807;118034;-75
2023/04/18 11:06:22;;;;;;;12.98;11.88;;;15.70;48.80;;;;;;20838;6807;117554;-72
2023/04/18 11:08:50;;;;;;;11.73;10.82;;;15.60;49.50;;;;;;20837;6807;117903;-71
2023/04/18 11:11:16;;;;;;;12.07;11.17;;;15.50;49.70;;;;;;20833;6807;117426;-71
2023/04/18 11:13:58;;;;;;;12.98;12.07;;;15.50;49.80;;;;;;20590;6805;306543;-72
2023/04/18 11:16:30;;;;;;;10.90;10.20;;;15.70;47.80;;;;;;20829;6806;118725;-72
2023/04/18 11:18:55;;;;;;;10.43;9.53;;;15.80;48.80;;;;;;20819;6806;117417;-73
2023/04/18 11:21:27;;;;;;;11.02;10.30;;;15.80;49.40;;;;;;20605;6806;306238;-73
2023/04/18 11:23:53;;;;;;;10.57;9.77;;;16.10;46.30;;;;;;20793;6806;117723;-73
2023/04/18 11:26:20;;;;;;;11.35;10.55;;;16.50;45.10;;;;;;20611;6807;336476;-71
2023/04/18 11:28:45;;;;;;;11.95;11.05;;;16.50;45.10;;;;;;20594;6807;324503;-73
2023/04/18 11:31:10;;;;;;;11.50;10.80;;;16.70;44.70;;;;;;20570;6807;336856;-73
2023/04/18 11:33:36;;;;;;;10.73;9.87;;;16.90;43.60;;;;;;20799;6807;117915;-72
2023/04/18 11:36:02;;;;;;;11.43;10.63;;;16.50;44.30;;;;;;20624;6807;306577;-73
2023/04/18 11:38:28;;;;;;;10.97;10.17;;;16.50;44.30;;;;;;20818;6807;118697;-73
2023/04/18 11:40:53;;;;;;;11.57;10.67;;;16.20;45.70;;;;;;20826;6807;117471;-73
2023/04/18 11:43:19;;;;;;;12.87;11.97;;;15.90;46.70;;;;;;20625;6807;315245;-73
2023/04/18 11:45:54;;;;;;;11.03;10.23;;;15.80;46.50;;;;;;20809;6807;117572;-72
2023/04/18 11:48:20;;;;;;;10.10;9.30;;;15.70;47.50;;;;;;20822;6807;118526;-73
2023/04/18 11:50:46;;;;;;;11.50;10.70;;;15.50;46.60;;;;;;20634;6807;280024;-73
2023/04/18 11:53:12;;;;;;;12.07;11.27;;;15.50;46.60;;;;;;20625;6807;307115;-72
2023/04/18 11:55:37;;;;;;;11.60;10.80;;;15.80;46.50;;;;;;20607;6807;341078;-71
2023/04/18 11:58:03;;;;;;;10.93;10.13;;;16.00;45.80;;;;;;20833;6807;117737;-70
2023/04/18 12:00:29;;;;;;;10.02;9.13;;;15.80;47.00;;;;;;20835;6807;117389;-71
2023/04/18 12:02:54;;;;;;;10.17;9.33;;;15.60;47.70;;;;;;20824;6807;117177;-72
2023/04/18 12:05:23;;;;;;;10.52;9.82;;;15.40;48.50;;;;;;20631;6807;306046;-70
2023/04/18 12:07:48;;;;;;;9.97;9.20;;;15.50;47.30;;;;;;20808;6807;117336;-71
2023/04/18 12:10:22;;;;;;;9.07;8.37;;;15.50;48.10;;;;;;20845;6807;117284;-72
2023/04/18 12:12:47;;;;;;;9.47;8.67;;;15.40;48.80;;;;;;20844;6807;120011;-71
2023/04/18 12:15:12;;;;;;;10.57;9.88;;;15.30;49.40;;;;;;20602;6807;310630;-70
2023/04/18 12:17:38;;;;;;;8.73;8.23;;;15.60;47.40;;;;;;20800;6807;117385;-70
2023/04/18 12:20:03;;;;;;;9.27;8.77;;;15.80;48.20;;;;;;20623;6807;281095;-69